sensor_id;sensor_type;location;lat;lon;timestamp;pressure;altitude;pressure_sealevel;temperature;humidity
51496;BME280;37572;52.094;4.870;2024-01-15T00:01:06;100405.75;;;6.08;59.92
51496;BME280;37572;52.094;4.870;2024-01-15T00:03:31;100396.16;;;6.07;59.67
51496;BME280;37572;52.094;4.870;2024-01-15T00:05:57;100396.16;;;6.07;59.56
51496;BME280;37572;52.094;4.870;2024-01-15T00:08:22;100396.28;;;6.05;59.87
51496;BME280;37572;52.094;4.870;2024-01-15T00:10:47;100390.16;;;6.05;59.30
51496;BME280;37572;52.094;4.870;2024-01-15T00:13:13;100391.00;;;6.05;59.32
51496;BME280;37572;52.094;4.870;2024-01-15T00:15:38;100381.25;;;6.06;59.64
51496;BME280;37572;52.094;4.870;2024-01-15T00:18:04;100381.25;;;6.06;59.27
51496;BME280;37572;52.094;4.870;2024-01-15T00:20:29;100382.09;;;6.06;59.35
51496;BME280;37572;52.094;4.870;2024-01-15T00:22:54;100378.59;;;6.06;59.26
51496;BME280;37572;52.094;4.870;2024-01-15T00:25:20;100383.06;;;6.05;59.31
51496;BME280;37572;52.094;4.870;2024-01-15T00:27:45;100376.09;;;6.04;59.26
51496;BME280;37572;52.094;4.870;2024-01-15T00:30:11;100380.56;;;6.04;58.86
51496;BME280;37572;52.094;4.870;2024-01-15T00:32:36;100360.66;;;6.00;58.71
51496;BME280;37572;52.094;4.870;2024-01-15T00:35:01;100368.00;;;5.96;58.59
51496;BME280;37572;52.094;4.870;2024-01-15T00:37:28;100363.81;;;5.93;59.07
51496;BME280;37572;52.094;4.870;2024-01-15T00:39:53;100361.31;;;5.92;58.77
51496;BME280;37572;52.094;4.870;2024-01-15T00:42:19;100357.69;;;5.93;58.76
51496;BME280;37572;52.094;4.870;2024-01-15T00:44:44;100355.88;;;5.93;59.06
51496;BME280;37572;52.094;4.870;2024-01-15T00:47:09;100350.47;;;5.95;59.17
51496;BME280;37572;52.094;4.870;2024-01-15T00:49:34;100347.72;;;5.97;59.05
51496;BME280;37572;52.094;4.870;2024-01-15T00:52:00;100348.53;;;5.97;59.03
51496;BME280;37572;52.094;4.870;2024-01-15T00:54:26;100342.44;;;5.97;59.57
51496;BME280;37572;52.094;4.870;2024-01-15T00:56:51;100349.38;;;5.98;58.81
51496;BME280;37572;52.094;4.870;2024-01-15T00:59:16;100347.59;;;5.98;58.95
51496;BME280;37572;52.094;4.870;2024-01-15T01:01:43;100343.13;;;5.99;58.85
51496;BME280;37572;52.094;4.870;2024-01-15T01:04:09;100340.47;;;5.99;58.86
51496;BME280;37572;52.094;4.870;2024-01-15T01:06:35;100350.09;;;6.00;58.82
51496;BME280;37572;52.094;4.870;2024-01-15T01:09:00;100340.34;;;6.00;58.63
51496;BME280;37572;52.094;4.870;2024-01-15T01:11:26;100338.66;;;5.99;58.88
51496;BME280;37572;52.094;4.870;2024-01-15T01:13:51;100327.25;;;5.99;58.43
51496;BME280;37572;52.094;4.870;2024-01-15T01:16:16;100331.84;;;5.97;58.50
51496;BME280;37572;52.094;4.870;2024-01-15T01:18:42;100332.94;;;5.94;58.74
51496;BME280;37572;52.094;4.870;2024-01-15T01:21:07;100328.03;;;5.89;58.29
51496;BME280;37572;52.094;4.870;2024-01-15T01:23:33;100332.63;;;5.87;58.51
51496;BME280;37572;52.094;4.870;2024-01-15T01:25:58;100335.41;;;5.86;58.54
51496;BME280;37572;52.094;4.870;2024-01-15T01:28:23;100352.25;;;5.85;58.70
51496;BME280;37572;52.094;4.870;2024-01-15T01:30:49;100356.81;;;5.83;58.63
51496;BME280;37572;52.094;4.870;2024-01-15T01:33:14;100343.47;;;5.84;58.65
51496;BME280;37572;52.094;4.870;2024-01-15T01:35:39;100334.59;;;5.85;58.98
51496;BME280;37572;52.094;4.870;2024-01-15T01:38:05;100328.34;;;5.86;58.97
51496;BME280;37572;52.094;4.870;2024-01-15T01:40:30;100326.94;;;5.92;59.26
51496;BME280;37572;52.094;4.870;2024-01-15T01:42:55;100323.06;;;5.96;59.02
51496;BME280;37572;52.094;4.870;2024-01-15T01:45:21;100321.97;;;5.99;58.97
51496;BME280;37572;52.094;4.870;2024-01-15T01:47:46;100324.63;;;5.99;58.89
51496;BME280;37572;52.094;4.870;2024-01-15T01:50:12;100326.31;;;6.00;58.94
51496;BME280;37572;52.094;4.870;2024-01-15T01:52:39;100322.66;;;6.01;59.21
51496;BME280;37572;52.094;4.870;2024-01-15T01:55:06;100324.34;;;6.02;59.08
51496;BME280;37572;52.094;4.870;2024-01-15T01:57:33;100324.34;;;6.02;59.15
51496;BME280;37572;52.094;4.870;2024-01-15T02:00:02;100323.53;;;6.01;59.08
51496;BME280;37572;52.094;4.870;2024-01-15T02:02:29;100327.94;;;6.01;59.07
51496;BME280;37572;52.094;4.870;2024-01-15T02:04:54;100321.84;;;6.00;58.95
51496;BME280;37572;52.094;4.870;2024-01-15T02:07:20;100317.66;;;5.98;58.66
51496;BME280;37572;52.094;4.870;2024-01-15T02:09:45;100316.00;;;5.97;58.68
51496;BME280;37572;52.094;4.870;2024-01-15T02:12:11;100318.06;;;5.93;59.03
51496;BME280;37572;52.094;4.870;2024-01-15T02:14:36;100307.75;;;5.90;58.89
51496;BME280;37572;52.094;4.870;2024-01-15T02:17:02;100311.50;;;5.87;58.69
51496;BME280;37572;52.094;4.870;2024-01-15T02:19:27;100308.31;;;5.84;59.00
51496;BME280;37572;52.094;4.870;2024-01-15T02:21:53;100314.53;;;5.83;59.06
51496;BME280;37572;52.094;4.870;2024-01-15T02:24:18;100319.13;;;5.81;58.74
51496;BME280;37572;52.094;4.870;2024-01-15T02:26:43;100317.63;;;5.78;58.66
51496;BME280;37572;52.094;4.870;2024-01-15T02:29:09;100323.19;;;5.75;58.66
51496;BME280;37572;52.094;4.870;2024-01-15T02:31:36;100329.41;;;5.74;59.20
51496;BME280;37572;52.094;4.870;2024-01-15T02:34:01;100338.03;;;5.76;58.84
51496;BME280;37572;52.094;4.870;2024-01-15T02:36:27;100326.50;;;5.77;58.96
51496;BME280;37572;52.094;4.870;2024-01-15T02:38:52;100326.94;;;5.82;58.96
51496;BME280;37572;52.094;4.870;2024-01-15T02:41:18;100313.44;;;5.85;59.06
51496;BME280;37572;52.094;4.870;2024-01-15T02:43:44;100305.25;;;5.88;59.05
51496;BME280;37572;52.094;4.870;2024-01-15T02:46:09;100297.75;;;5.93;59.11
51496;BME280;37572;52.094;4.870;2024-01-15T02:48:34;100297.50;;;5.97;59.39
51496;BME280;37572;52.094;4.870;2024-01-15T02:51:00;100306.25;;;5.97;59.18
51496;BME280;37572;52.094;4.870;2024-01-15T02:53:26;100301.78;;;5.98;59.19
51496;BME280;37572;52.094;4.870;2024-01-15T02:55:51;100303.59;;;5.97;59.34
51496;BME280;37572;52.094;4.870;2024-01-15T02:58:16;100304.56;;;5.96;59.21
51496;BME280;37572;52.094;4.870;2024-01-15T03:00:41;100305.66;;;5.93;59.17
51496;BME280;37572;52.094;4.870;2024-01-15T03:03:07;100307.91;;;5.88;59.08
51496;BME280;37572;52.094;4.870;2024-01-15T03:05:33;100304.69;;;5.85;58.93
51496;BME280;37572;52.094;4.870;2024-01-15T03:07:58;100300.50;;;5.82;59.26
51496;BME280;37572;52.094;4.870;2024-01-15T03:10:24;100298.13;;;5.79;59.00
51496;BME280;37572;52.094;4.870;2024-01-15T03:12:49;100295.50;;;5.79;59.42
51496;BME280;37572;52.094;4.870;2024-01-15T03:15:14;100293.84;;;5.78;59.36
51496;BME280;37572;52.094;4.870;2024-01-15T03:17:41;100300.91;;;5.78;59.02
51496;BME280;37572;52.094;4.870;2024-01-15T03:20:07;100287.69;;;5.78;58.90
51496;BME280;37572;52.094;4.870;2024-01-15T03:22:33;100298.13;;;5.79;59.19
51496;BME280;37572;52.094;4.870;2024-01-15T03:24:58;100293.56;;;5.81;59.25
51496;BME280;37572;52.094;4.870;2024-01-15T03:27:24;100281.72;;;5.85;59.39
51496;BME280;37572;52.094;4.870;2024-01-15T03:29:49;100278.00;;;5.88;59.43
51496;BME280;37572;52.094;4.870;2024-01-15T03:32:14;100278.53;;;5.91;59.26
51496;BME280;37572;52.094;4.870;2024-01-15T03:34:41;100285.34;;;5.94;59.23
51496;BME280;37572;52.094;4.870;2024-01-15T03:37:06;100306.13;;;5.99;59.19
51496;BME280;37572;52.094;4.870;2024-01-15T03:39:31;100314.72;;;6.01;59.06
51496;BME280;37572;52.094;4.870;2024-01-15T03:41:57;100297.22;;;6.00;59.36
51496;BME280;37572;52.094;4.870;2024-01-15T03:44:22;100306.13;;;5.99;58.93
51496;BME280;37572;52.094;4.870;2024-01-15T03:46:48;100292.91;;;5.99;59.40
51496;BME280;37572;52.094;4.870;2024-01-15T03:49:13;100294.59;;;6.00;59.38
51496;BME280;37572;52.094;4.870;2024-01-15T03:51:38;100289.28;;;6.00;59.20
51496;BME280;37572;52.094;4.870;2024-01-15T03:54:04;100275.22;;;5.99;59.53
51496;BME280;37572;52.094;4.870;2024-01-15T03:56:29;100268.16;;;6.00;59.73
51496;BME280;37572;52.094;4.870;2024-01-15T03:58:54;100267.16;;;6.01;59.80
51496;BME280;37572;52.094;4.870;2024-01-15T04:01:19;100272.31;;;6.02;59.56
51496;BME280;37572;52.094;4.870;2024-01-15T04:03:45;100284.69;;;6.02;59.52
51496;BME280;37572;52.094;4.870;2024-01-15T04:06:10;100283.00;;;6.01;59.74
51496;BME280;37572;52.094;4.870;2024-01-15T04:08:35;100284.84;;;6.00;59.52
51496;BME280;37572;52.094;4.870;2024-01-15T04:11:01;100276.75;;;6.02;59.60
51496;BME280;37572;52.094;4.870;2024-01-15T04:13:27;100276.63;;;6.03;59.56
51496;BME280;37572;52.094;4.870;2024-01-15T04:15:52;100273.97;;;6.03;59.65
51496;BME280;37572;52.094;4.870;2024-01-15T04:18:17;100249.34;;;6.03;59.65
51496;BME280;37572;52.094;4.870;2024-01-15T04:20:43;100268.16;;;6.00;59.76
51496;BME280;37572;52.094;4.870;2024-01-15T04:23:08;100256.13;;;5.96;59.87
51496;BME280;37572;52.094;4.870;2024-01-15T04:25:35;100256.53;;;5.91;59.63
51496;BME280;37572;52.094;4.870;2024-01-15T04:28:00;100245.56;;;5.86;59.90
51496;BME280;37572;52.094;4.870;2024-01-15T04:30:26;100248.66;;;5.81;59.92
51496;BME280;37572;52.094;4.870;2024-01-15T04:32:51;100249.88;;;5.77;60.02
51496;BME280;37572;52.094;4.870;2024-01-15T04:35:16;100251.28;;;5.71;59.85
51496;BME280;37572;52.094;4.870;2024-01-15T04:37:42;100245.13;;;5.71;60.33
51496;BME280;37572;52.094;4.870;2024-01-15T04:40:07;100253.06;;;5.71;60.09
51496;BME280;37572;52.094;4.870;2024-01-15T04:42:33;100253.78;;;5.73;60.01
51496;BME280;37572;52.094;4.870;2024-01-15T04:44:59;100247.25;;;5.77;60.30
51496;BME280;37572;52.094;4.870;2024-01-15T04:47:24;100254.47;;;5.85;60.50
51496;BME280;37572;52.094;4.870;2024-01-15T04:49:50;100245.16;;;5.90;60.42
51496;BME280;37572;52.094;4.870;2024-01-15T04:52:15;100244.75;;;5.95;60.16
51496;BME280;37572;52.094;4.870;2024-01-15T04:54:40;100244.63;;;5.97;60.27
51496;BME280;37572;52.094;4.870;2024-01-15T04:57:05;100242.69;;;5.99;60.25
51496;BME280;37572;52.094;4.870;2024-01-15T04:59:31;100237.25;;;6.00;60.24
51496;BME280;37572;52.094;4.870;2024-01-15T05:01:56;100237.13;;;6.02;60.15
51496;BME280;37572;52.094;4.870;2024-01-15T05:04:21;100235.28;;;6.02;59.96
51496;BME280;37572;52.094;4.870;2024-01-15T05:06:47;100237.13;;;6.02;60.14
51496;BME280;37572;52.094;4.870;2024-01-15T05:09:12;100225.84;;;6.00;60.06
51496;BME280;37572;52.094;4.870;2024-01-15T05:11:39;100220.00;;;5.96;60.33
51496;BME280;37572;52.094;4.870;2024-01-15T05:14:04;100223.88;;;5.92;60.42
51496;BME280;37572;52.094;4.870;2024-01-15T05:16:29;100218.03;;;5.88;60.25
51496;BME280;37572;52.094;4.870;2024-01-15T05:18:54;100219.00;;;5.87;60.53
51496;BME280;37572;52.094;4.870;2024-01-15T05:21:20;100209.56;;;5.85;60.44
51496;BME280;37572;52.094;4.870;2024-01-15T05:23:45;100211.47;;;5.83;60.45
51496;BME280;37572;52.094;4.870;2024-01-15T05:26:10;100207.19;;;5.82;60.45
51496;BME280;37572;52.094;4.870;2024-01-15T05:28:35;100207.59;;;5.77;60.51
51496;BME280;37572;52.094;4.870;2024-01-15T05:31:01;100213.03;;;5.75;60.45
51496;BME280;37572;52.094;4.870;2024-01-15T05:33:26;100210.66;;;5.72;60.64
51496;BME280;37572;52.094;4.870;2024-01-15T05:35:52;100212.47;;;5.72;60.84
51496;BME280;37572;52.094;4.870;2024-01-15T05:38:18;100210.78;;;5.71;60.84
51496;BME280;37572;52.094;4.870;2024-01-15T05:40:43;100203.84;;;5.70;61.14
51496;BME280;37572;52.094;4.870;2024-01-15T05:43:09;100208.00;;;5.72;60.91
51496;BME280;37572;52.094;4.870;2024-01-15T05:45:35;100216.66;;;5.74;61.34
51496;BME280;37572;52.094;4.870;2024-01-15T05:48:01;100210.25;;;5.77;61.09
51496;BME280;37572;52.094;4.870;2024-01-15T05:50:26;100204.81;;;5.79;61.18
51496;BME280;37572;52.094;4.870;2024-01-15T05:52:51;100201.09;;;5.81;61.36
51496;BME280;37572;52.094;4.870;2024-01-15T05:55:17;100200.09;;;5.82;61.20
51496;BME280;37572;52.094;4.870;2024-01-15T05:57:43;100199.94;;;5.84;61.21
51496;BME280;37572;52.094;4.870;2024-01-15T06:00:09;100200.63;;;5.86;61.02
51496;BME280;37572;52.094;4.870;2024-01-15T06:02:35;100199.81;;;5.85;61.02
51496;BME280;37572;52.094;4.870;2024-01-15T06:05:02;100197.44;;;5.82;60.98
51496;BME280;37572;52.094;4.870;2024-01-15T06:07:28;100186.06;;;5.82;60.58
51496;BME280;37572;52.094;4.870;2024-01-15T06:09:53;100190.50;;;5.81;60.75
51496;BME280;37572;52.094;4.870;2024-01-15T06:12:18;100180.22;;;5.78;61.13
51496;BME280;37572;52.094;4.870;2024-01-15T06:14:43;100180.22;;;5.78;60.89
51496;BME280;37572;52.094;4.870;2024-01-15T06:17:08;100186.59;;;5.75;61.02
51496;BME280;37572;52.094;4.870;2024-01-15T06:19:34;100216.66;;;5.74;60.95
51496;BME280;37572;52.094;4.870;2024-01-15T06:22:00;100204.28;;;5.75;61.16
51496;BME280;37572;52.094;4.870;2024-01-15T06:24:25;100232.66;;;5.73;61.06
51496;BME280;37572;52.094;4.870;2024-01-15T06:26:51;100219.56;;;5.71;61.11
51496;BME280;37572;52.094;4.870;2024-01-15T06:29:16;100207.31;;;5.70;60.93
51496;BME280;37572;52.094;4.870;2024-01-15T06:31:41;100202.31;;;5.67;60.61
51496;BME280;37572;52.094;4.870;2024-01-15T06:34:07;100205.94;;;5.66;60.66
51496;BME280;37572;52.094;4.870;2024-01-15T06:36:32;100199.81;;;5.66;60.77
51496;BME280;37572;52.094;4.870;2024-01-15T06:38:57;100200.09;;;5.63;60.79
51496;BME280;37572;52.094;4.870;2024-01-15T06:41:22;100196.63;;;5.62;60.56
51496;BME280;37572;52.094;4.870;2024-01-15T06:43:48;100190.66;;;5.60;60.57
51496;BME280;37572;52.094;4.870;2024-01-15T06:46:22;100193.56;;;5.57;60.92
51496;BME280;37572;52.094;4.870;2024-01-15T06:48:48;100190.09;;;5.56;60.63
51496;BME280;37572;52.094;4.870;2024-01-15T06:51:13;100190.09;;;5.56;61.00
51496;BME280;37572;52.094;4.870;2024-01-15T06:53:39;100194.38;;;5.57;60.83
51496;BME280;37572;52.094;4.870;2024-01-15T06:56:04;100204.69;;;5.61;61.06
51496;BME280;37572;52.094;4.870;2024-01-15T06:58:32;100193.00;;;5.63;60.81
51496;BME280;37572;52.094;4.870;2024-01-15T07:00:57;100204.97;;;5.67;60.82
51496;BME280;37572;52.094;4.870;2024-01-15T07:03:23;100209.84;;;5.72;60.99
51496;BME280;37572;52.094;4.870;2024-01-15T07:05:48;100211.22;;;5.76;61.02
51496;BME280;37572;52.094;4.870;2024-01-15T07:08:13;100216.94;;;5.81;60.98
51496;BME280;37572;52.094;4.870;2024-01-15T07:10:39;100233.34;;;5.85;60.53
51496;BME280;37572;52.094;4.870;2024-01-15T07:13:04;100234.16;;;5.85;60.44
51496;BME280;37572;52.094;4.870;2024-01-15T07:15:30;100227.50;;;5.81;60.48
51496;BME280;37572;52.094;4.870;2024-01-15T07:17:56;100226.38;;;5.74;60.38
51496;BME280;37572;52.094;4.870;2024-01-15T07:20:21;100218.03;;;5.69;60.46
51496;BME280;37572;52.094;4.870;2024-01-15T07:22:47;100210.50;;;5.64;60.24
51496;BME280;37572;52.094;4.870;2024-01-15T07:25:12;100207.19;;;5.62;60.33
51496;BME280;37572;52.094;4.870;2024-01-15T07:27:38;100195.94;;;5.60;60.27
51496;BME280;37572;52.094;4.870;2024-01-15T07:30:03;100190.78;;;5.59;60.15
51496;BME280;37572;52.094;4.870;2024-01-15T07:32:30;100188.13;;;5.59;59.97
51496;BME280;37572;52.094;4.870;2024-01-15T07:34:56;100200.53;;;5.58;60.14
51496;BME280;37572;52.094;4.870;2024-01-15T07:37:22;100211.78;;;5.60;60.27
51496;BME280;37572;52.094;4.870;2024-01-15T07:39:48;100213.44;;;5.61;59.81
51496;BME280;37572;52.094;4.870;2024-01-15T07:42:14;100218.16;;;5.57;60.12
51496;BME280;37572;52.094;4.870;2024-01-15T07:44:39;100211.38;;;5.55;60.20
51496;BME280;37572;52.094;4.870;2024-01-15T07:47:05;100205.38;;;5.53;59.99
51496;BME280;37572;52.094;4.870;2024-01-15T07:49:30;100205.66;;;5.50;60.01
51496;BME280;37572;52.094;4.870;2024-01-15T07:51:55;100218.00;;;5.49;60.37
51496;BME280;37572;52.094;4.870;2024-01-15T07:54:20;100207.75;;;5.46;60.10
51496;BME280;37572;52.094;4.870;2024-01-15T07:57:00;100211.34;;;5.45;60.35
51496;BME280;37572;52.094;4.870;2024-01-15T07:59:26;100214.81;;;5.46;60.41
51496;BME280;37572;52.094;4.870;2024-01-15T08:01:52;100219.97;;;5.47;60.57
51496;BME280;37572;52.094;4.870;2024-01-15T08:04:18;100215.50;;;5.48;60.16
51496;BME280;37572;52.094;4.870;2024-01-15T08:06:43;100212.19;;;5.46;60.21
51496;BME280;37572;52.094;4.870;2024-01-15T08:09:08;100215.22;;;5.41;60.31
51496;BME280;37572;52.094;4.870;2024-01-15T08:11:35;100212.88;;;5.38;60.33
51496;BME280;37572;52.094;4.870;2024-01-15T08:14:00;100206.19;;;5.34;60.25
51496;BME280;37572;52.094;4.870;2024-01-15T08:16:26;100222.16;;;5.32;60.34
51496;BME280;37572;52.094;4.870;2024-01-15T08:18:52;100229.53;;;5.29;60.14
51496;BME280;37572;52.094;4.870;2024-01-15T08:21:17;100229.53;;;5.29;60.29
51496;BME280;37572;52.094;4.870;2024-01-15T08:23:44;100241.03;;;5.28;60.88
51496;BME280;37572;52.094;4.870;2024-01-15T08:26:09;100237.44;;;5.29;60.59
51496;BME280;37572;52.094;4.870;2024-01-15T08:28:35;100241.50;;;5.33;60.53
51496;BME280;37572;52.094;4.870;2024-01-15T08:31:00;100229.94;;;5.34;60.39
51496;BME280;37572;52.094;4.870;2024-01-15T08:33:26;100218.16;;;5.38;60.39
51496;BME280;37572;52.094;4.870;2024-01-15T08:35:51;100224.25;;;5.38;60.53
51496;BME280;37572;52.094;4.870;2024-01-15T08:38:16;100221.63;;;5.38;60.58
51496;BME280;37572;52.094;4.870;2024-01-15T08:40:42;100210.94;;;5.40;60.50
51496;BME280;37572;52.094;4.870;2024-01-15T08:43:07;100209.25;;;5.39;60.46
51496;BME280;37572;52.094;4.870;2024-01-15T08:45:32;100208.41;;;5.38;60.76
51496;BME280;37572;52.094;4.870;2024-01-15T08:47:58;100209.38;;;5.37;60.80
51496;BME280;37572;52.094;4.870;2024-01-15T08:50:24;100206.88;;;5.36;60.52
51496;BME280;37572;52.094;4.870;2024-01-15T08:52:49;100206.06;;;5.35;60.75
51496;BME280;37572;52.094;4.870;2024-01-15T08:55:14;100220.81;;;5.38;60.85
51496;BME280;37572;52.094;4.870;2024-01-15T08:57:40;100229.16;;;5.43;60.94
51496;BME280;37572;52.094;4.870;2024-01-15T09:00:06;100229.84;;;5.55;61.41
51496;BME280;37572;52.094;4.870;2024-01-15T09:02:34;100236.53;;;5.69;61.62
51496;BME280;37572;52.094;4.870;2024-01-15T09:05:00;100242.78;;;5.87;61.61
51496;BME280;37572;52.094;4.870;2024-01-15T09:07:25;100253.66;;;6.04;61.31
51496;BME280;37572;52.094;4.870;2024-01-15T09:09:52;100249.34;;;6.13;60.65
51496;BME280;37572;52.094;4.870;2024-01-15T09:12:17;100237.78;;;6.14;60.42
51496;BME280;37572;52.094;4.870;2024-01-15T09:14:43;100245.88;;;6.12;60.44
51496;BME280;37572;52.094;4.870;2024-01-15T09:17:09;100243.34;;;6.10;60.13
51496;BME280;37572;52.094;4.870;2024-01-15T09:19:34;100266.31;;;6.10;60.17
51496;BME280;37572;52.094;4.870;2024-01-15T09:21:59;100242.94;;;6.05;60.04
51496;BME280;37572;52.094;4.870;2024-01-15T09:24:25;100232.94;;;5.99;59.85
51496;BME280;37572;52.094;4.870;2024-01-15T09:26:50;100237.63;;;5.96;60.13
51496;BME280;37572;52.094;4.870;2024-01-15T09:29:15;100236.94;;;5.93;60.11
51496;BME280;37572;52.094;4.870;2024-01-15T09:31:41;100236.25;;;5.91;60.19
51496;BME280;37572;52.094;4.870;2024-01-15T09:34:06;100232.06;;;5.89;60.16
51496;BME280;37572;52.094;4.870;2024-01-15T09:36:32;100239.31;;;5.87;59.75
51496;BME280;37572;52.094;4.870;2024-01-15T09:38:57;100234.44;;;5.82;59.99
51496;BME280;37572;52.094;4.870;2024-01-15T09:41:23;100229.44;;;5.79;59.94
51496;BME280;37572;52.094;4.870;2024-01-15T09:43:48;100230.41;;;5.78;60.18
51496;BME280;37572;52.094;4.870;2024-01-15T09:46:15;100225.81;;;5.80;60.03
51496;BME280;37572;52.094;4.870;2024-01-15T09:48:40;100230.97;;;5.82;60.07
51496;BME280;37572;52.094;4.870;2024-01-15T09:51:06;100227.34;;;5.83;59.99
51496;BME280;37572;52.094;4.870;2024-01-15T09:53:33;100223.31;;;5.88;60.17
51496;BME280;37572;52.094;4.870;2024-01-15T09:55:59;100235.84;;;5.96;60.27
51496;BME280;37572;52.094;4.870;2024-01-15T09:58:25;100231.81;;;6.02;60.25
51496;BME280;37572;52.094;4.870;2024-01-15T10:00:51;100237.53;;;6.07;60.07
51496;BME280;37572;52.094;4.870;2024-01-15T10:03:17;100225.81;;;6.19;60.17
51496;BME280;37572;52.094;4.870;2024-01-15T10:05:43;100235.25;;;6.32;60.25
51496;BME280;37572;52.094;4.870;2024-01-15T10:08:09;100235.78;;;6.45;60.50
51496;BME280;37572;52.094;4.870;2024-01-15T10:10:36;100242.28;;;6.60;60.34
51496;BME280;37572;52.094;4.870;2024-01-15T10:13:03;100241.81;;;6.75;60.12
51496;BME280;37572;52.094;4.870;2024-01-15T10:15:29;100241.19;;;6.91;60.42
51496;BME280;37572;52.094;4.870;2024-01-15T10:17:54;100255.69;;;7.14;60.51
51496;BME280;37572;52.094;4.870;2024-01-15T10:20:20;100240.72;;;7.33;60.34
51496;BME280;37572;52.094;4.870;2024-01-15T10:22:47;100238.53;;;7.46;60.25
51496;BME280;37572;52.094;4.870;2024-01-15T10:25:13;100243.06;;;7.54;60.08
51496;BME280;37572;52.094;4.870;2024-01-15T10:27:40;100242.63;;;7.58;59.75
51496;BME280;37572;52.094;4.870;2024-01-15T10:30:07;100252.47;;;7.66;60.14
51496;BME280;37572;52.094;4.870;2024-01-15T10:32:32;100257.69;;;7.76;59.92
51496;BME280;37572;52.094;4.870;2024-01-15T10:34:58;100250.22;;;7.89;60.02
51496;BME280;37572;52.094;4.870;2024-01-15T10:37:24;100252.59;;;8.01;59.98
51496;BME280;37572;52.094;4.870;2024-01-15T10:39:49;100259.94;;;8.07;59.33
51496;BME280;37572;52.094;4.870;2024-01-15T10:42:15;100255.75;;;7.96;58.45
51496;BME280;37572;52.094;4.870;2024-01-15T10:44:41;100266.78;;;7.73;57.56
51496;BME280;37572;52.094;4.870;2024-01-15T10:47:08;100259.59;;;7.48;57.71
51496;BME280;37572;52.094;4.870;2024-01-15T10:49:34;100272.25;;;7.26;57.91
51496;BME280;37572;52.094;4.870;2024-01-15T10:52:01;100278.16;;;7.10;57.73
51496;BME280;37572;52.094;4.870;2024-01-15T10:54:27;100291.88;;;6.96;58.13
51496;BME280;37572;52.094;4.870;2024-01-15T10:56:52;100286.94;;;6.83;57.82
51496;BME280;37572;52.094;4.870;2024-01-15T10:59:20;100286.41;;;6.70;57.99
51496;BME280;37572;52.094;4.870;2024-01-15T11:01:46;100270.69;;;6.58;58.34
51496;BME280;37572;52.094;4.870;2024-01-15T11:04:12;100276.69;;;6.51;58.01
51496;BME280;37572;52.094;4.870;2024-01-15T11:06:42;100278.41;;;6.42;57.97
51496;BME280;37572;52.094;4.870;2024-01-15T11:09:08;100279.63;;;6.38;58.57
51496;BME280;37572;52.094;4.870;2024-01-15T11:11:35;100285.09;;;6.36;58.82
51496;BME280;37572;52.094;4.870;2024-01-15T11:14:01;100277.56;;;6.41;59.07
51496;BME280;37572;52.094;4.870;2024-01-15T11:16:53;100281.31;;;6.48;59.40
51496;BME280;37572;52.094;4.870;2024-01-15T11:19:18;100297.41;;;6.65;59.33
51496;BME280;37572;52.094;4.870;2024-01-15T11:21:44;100301.00;;;6.83;59.63
51496;BME280;37572;52.094;4.870;2024-01-15T11:24:09;100299.69;;;6.97;59.42
51496;BME280;37572;52.094;4.870;2024-01-15T11:29:29;100300.34;;;6.99;58.62
51496;BME280;37572;52.094;4.870;2024-01-15T11:34:20;100298.06;;;6.87;58.75
51496;BME280;37572;52.094;4.870;2024-01-15T11:42:02;100298.78;;;6.69;58.69
51496;BME280;37572;52.094;4.870;2024-01-15T11:44:31;100308.84;;;6.65;58.46
51496;BME280;37572;52.094;4.870;2024-01-15T11:47:04;100316.22;;;6.62;58.88
51496;BME280;37572;52.094;4.870;2024-01-15T11:52:17;100318.31;;;6.58;58.87
51496;BME280;37572;52.094;4.870;2024-01-15T11:54:54;100308.03;;;6.55;59.04
51496;BME280;37572;52.094;4.870;2024-01-15T11:57:40;100306.47;;;6.53;59.18
51496;BME280;37572;52.094;4.870;2024-01-15T12:00:06;100309.69;;;6.56;59.70
51496;BME280;37572;52.094;4.870;2024-01-15T12:02:33;100304.53;;;6.64;59.94
51496;BME280;37572;52.094;4.870;2024-01-15T12:04:59;100311.19;;;6.78;59.94
51496;BME280;37572;52.094;4.870;2024-01-15T12:07:24;100312.34;;;7.03;60.41
51496;BME280;37572;52.094;4.870;2024-01-15T12:09:50;100316.00;;;7.30;60.54
51496;BME280;37572;52.094;4.870;2024-01-15T12:12:24;100322.16;;;7.49;59.93
51496;BME280;37572;52.094;4.870;2024-01-15T12:14:52;100311.13;;;7.53;59.88
51496;BME280;37572;52.094;4.870;2024-01-15T12:17:17;100310.44;;;7.51;59.06
51496;BME280;37572;52.094;4.870;2024-01-15T12:19:43;100312.72;;;7.46;59.15
51496;BME280;37572;52.094;4.870;2024-01-15T12:22:08;100317.59;;;7.41;58.67
51496;BME280;37572;52.094;4.870;2024-01-15T12:24:35;100312.06;;;7.34;58.43
51496;BME280;37572;52.094;4.870;2024-01-15T12:27:01;100324.91;;;7.29;58.77
51496;BME280;37572;52.094;4.870;2024-01-15T12:29:27;100312.66;;;7.28;58.78
51496;BME280;37572;52.094;4.870;2024-01-15T12:31:53;100306.22;;;7.31;58.16
51496;BME280;37572;52.094;4.870;2024-01-15T12:34:18;100314.81;;;7.43;59.53
51496;BME280;37572;52.094;4.870;2024-01-15T12:36:46;100311.63;;;7.85;59.52
51496;BME280;37572;52.094;4.870;2024-01-15T12:39:12;100316.59;;;8.42;59.10
51496;BME280;37572;52.094;4.870;2024-01-15T12:41:38;100318.25;;;9.13;58.74
51496;BME280;37572;52.094;4.870;2024-01-15T12:44:04;100335.63;;;9.85;57.92
51496;BME280;37572;52.094;4.870;2024-01-15T12:46:29;100341.31;;;10.14;55.69
51496;BME280;37572;52.094;4.870;2024-01-15T12:48:56;100345.78;;;10.14;54.88
51496;BME280;37572;52.094;4.870;2024-01-15T12:51:25;100341.13;;;9.99;54.08
51496;BME280;37572;52.094;4.870;2024-01-15T12:53:50;100338.94;;;9.95;54.54
51496;BME280;37572;52.094;4.870;2024-01-15T12:56:16;100334.22;;;10.40;54.79
51496;BME280;37572;52.094;4.870;2024-01-15T12:58:41;100334.72;;;11.16;55.20
51496;BME280;37572;52.094;4.870;2024-01-15T13:01:07;100335.22;;;11.98;54.79
51496;BME280;37572;52.094;4.870;2024-01-15T13:03:32;100337.13;;;12.74;54.29
51496;BME280;37572;52.094;4.870;2024-01-15T13:05:57;100334.09;;;13.51;53.63